Moorefield, Ohio
Current Conditions -  °F | °C
As of 11:53 PM on Thursday 30 Oct 2014 (Local Time) from KHLG Reporting Station
Overcast Overcast  
Wind Chill: 44°   Ceiling: 4400
Heat Index: 44°   Visibility: 10mi
Dew Point: 37°   Wind: 0mph
Humidity: 76%   Direction: NA
Pressure: 30.04"   Gusts: NA
Location:  40.2595°N, 81.0198°W
Report Text: KHLG 310353Z AUTO 00000KT 10SM OVC044 07/03 A3004 RMK AO2 SLP178 T00670028
Loading
Personal Weather Stations






























Interactive Weather Map
Tropical Storm Tracking
New forecast layout! Learn more

10-Day Weather Forecast

Advertisements
Track Severe Weather on mobile